sensor_id;sensor_type;location;lat;lon;timestamp;P1;durP1;ratioP1;P2;durP2;ratioP2
66523;SDS011;53350;52.210;5.160;2023-04-06T00:02:07;14.77;;;6.82;;
66523;SDS011;53350;52.210;5.160;2023-04-06T00:04:35;14.32;;;7.00;;
66523;SDS011;53350;52.210;5.160;2023-04-06T00:07:02;14.05;;;7.45;;
66523;SDS011;53350;52.210;5.160;2023-04-06T00:09:28;17.70;;;8.02;;
66523;SDS011;53350;52.210;5.160;2023-04-06T00:11:55;13.85;;;7.50;;
66523;SDS011;53350;52.210;5.160;2023-04-06T00:14:22;13.43;;;7.63;;
66523;SDS011;53350;52.210;5.160;2023-04-06T00:16:49;14.93;;;7.40;;
66523;SDS011;53350;52.210;5.160;2023-04-06T00:19:16;14.45;;;7.25;;
66523;SDS011;53350;52.210;5.160;2023-04-06T00:21:43;19.25;;;6.60;;
66523;SDS011;53350;52.210;5.160;2023-04-06T00:24:10;12.48;;;6.82;;
66523;SDS011;53350;52.210;5.160;2023-04-06T00:26:37;13.93;;;7.22;;
66523;SDS011;53350;52.210;5.160;2023-04-06T00:29:03;14.35;;;7.90;;
66523;SDS011;53350;52.210;5.160;2023-04-06T00:31:29;15.52;;;7.03;;
66523;SDS011;53350;52.210;5.160;2023-04-06T00:33:57;15.82;;;6.47;;
66523;SDS011;53350;52.210;5.160;2023-04-06T00:36:24;17.40;;;7.73;;
66523;SDS011;53350;52.210;5.160;2023-04-06T00:38:52;12.43;;;6.97;;
66523;SDS011;53350;52.210;5.160;2023-04-06T00:41:18;14.37;;;6.80;;
66523;SDS011;53350;52.210;5.160;2023-04-06T00:43:45;13.90;;;8.65;;
66523;SDS011;53350;52.210;5.160;2023-04-06T00:46:12;15.70;;;7.00;;
66523;SDS011;53350;52.210;5.160;2023-04-06T00:48:38;12.95;;;7.45;;
66523;SDS011;53350;52.210;5.160;2023-04-06T00:51:05;16.73;;;6.82;;
66523;SDS011;53350;52.210;5.160;2023-04-06T00:53:32;13.98;;;6.82;;
66523;SDS011;53350;52.210;5.160;2023-04-06T00:55:59;13.98;;;6.82;;
66523;SDS011;53350;52.210;5.160;2023-04-06T00:58:26;12.33;;;6.70;;
66523;SDS011;53350;52.210;5.160;2023-04-06T01:00:52;13.65;;;7.20;;
66523;SDS011;53350;52.210;5.160;2023-04-06T01:03:19;12.77;;;6.72;;
66523;SDS011;53350;52.210;5.160;2023-04-06T01:05:46;14.13;;;6.85;;
66523;SDS011;53350;52.210;5.160;2023-04-06T01:08:12;12.40;;;6.47;;
66523;SDS011;53350;52.210;5.160;2023-04-06T01:10:39;12.90;;;7.07;;
66523;SDS011;53350;52.210;5.160;2023-04-06T01:13:06;15.18;;;6.55;;
66523;SDS011;53350;52.210;5.160;2023-04-06T01:15:33;11.95;;;6.53;;
66523;SDS011;53350;52.210;5.160;2023-04-06T01:18:03;13.32;;;6.75;;
66523;SDS011;53350;52.210;5.160;2023-04-06T01:20:31;13.32;;;6.03;;
66523;SDS011;53350;52.210;5.160;2023-04-06T01:22:59;14.13;;;6.53;;
66523;SDS011;53350;52.210;5.160;2023-04-06T01:25:26;14.15;;;6.22;;
66523;SDS011;53350;52.210;5.160;2023-04-06T01:27:52;17.20;;;6.45;;
66523;SDS011;53350;52.210;5.160;2023-04-06T01:30:18;11.75;;;6.40;;
66523;SDS011;53350;52.210;5.160;2023-04-06T01:32:45;13.57;;;6.13;;
66523;SDS011;53350;52.210;5.160;2023-04-06T01:35:12;12.15;;;5.75;;
66523;SDS011;53350;52.210;5.160;2023-04-06T01:37:38;11.35;;;5.70;;
66523;SDS011;53350;52.210;5.160;2023-04-06T01:40:07;14.75;;;6.72;;
66523;SDS011;53350;52.210;5.160;2023-04-06T01:42:34;12.45;;;6.55;;
66523;SDS011;53350;52.210;5.160;2023-04-06T01:45:00;13.55;;;6.25;;
66523;SDS011;53350;52.210;5.160;2023-04-06T01:47:27;11.35;;;6.25;;
66523;SDS011;53350;52.210;5.160;2023-04-06T01:49:53;12.73;;;6.07;;
66523;SDS011;53350;52.210;5.160;2023-04-06T01:52:20;12.98;;;6.88;;
66523;SDS011;53350;52.210;5.160;2023-04-06T01:54:46;11.93;;;5.80;;
66523;SDS011;53350;52.210;5.160;2023-04-06T01:57:14;10.63;;;6.32;;
66523;SDS011;53350;52.210;5.160;2023-04-06T01:59:41;11.85;;;5.80;;
66523;SDS011;53350;52.210;5.160;2023-04-06T02:02:07;13.90;;;6.35;;
66523;SDS011;53350;52.210;5.160;2023-04-06T02:04:33;13.90;;;6.53;;
66523;SDS011;53350;52.210;5.160;2023-04-06T02:07:00;12.77;;;6.40;;
66523;SDS011;53350;52.210;5.160;2023-04-06T02:09:26;13.50;;;6.65;;
66523;SDS011;53350;52.210;5.160;2023-04-06T02:11:53;15.93;;;6.45;;
66523;SDS011;53350;52.210;5.160;2023-04-06T02:14:23;11.02;;;5.93;;
66523;SDS011;53350;52.210;5.160;2023-04-06T02:16:51;12.82;;;6.22;;
66523;SDS011;53350;52.210;5.160;2023-04-06T02:19:17;12.55;;;5.80;;
66523;SDS011;53350;52.210;5.160;2023-04-06T02:21:43;11.43;;;5.65;;
66523;SDS011;53350;52.210;5.160;2023-04-06T02:24:10;11.93;;;5.70;;
66523;SDS011;53350;52.210;5.160;2023-04-06T02:26:36;15.32;;;6.50;;
66523;SDS011;53350;52.210;5.160;2023-04-06T02:29:03;11.27;;;6.28;;
66523;SDS011;53350;52.210;5.160;2023-04-06T02:31:30;12.63;;;5.95;;
66523;SDS011;53350;52.210;5.160;2023-04-06T02:33:57;11.67;;;5.87;;
66523;SDS011;53350;52.210;5.160;2023-04-06T02:36:23;11.38;;;6.03;;
66523;SDS011;53350;52.210;5.160;2023-04-06T02:38:51;12.25;;;6.10;;
66523;SDS011;53350;52.210;5.160;2023-04-06T02:41:17;11.15;;;6.40;;
66523;SDS011;53350;52.210;5.160;2023-04-06T02:43:44;12.63;;;6.40;;
66523;SDS011;53350;52.210;5.160;2023-04-06T02:46:10;11.88;;;6.30;;
66523;SDS011;53350;52.210;5.160;2023-04-06T02:48:38;13.95;;;6.78;;
66523;SDS011;53350;52.210;5.160;2023-04-06T02:51:04;12.87;;;6.13;;
66523;SDS011;53350;52.210;5.160;2023-04-06T02:53:31;13.50;;;6.47;;
66523;SDS011;53350;52.210;5.160;2023-04-06T02:55:57;13.52;;;6.30;;
66523;SDS011;53350;52.210;5.160;2023-04-06T02:58:24;13.80;;;6.30;;
66523;SDS011;53350;52.210;5.160;2023-04-06T03:00:50;11.50;;;6.07;;
66523;SDS011;53350;52.210;5.160;2023-04-06T03:03:17;10.70;;;6.00;;
66523;SDS011;53350;52.210;5.160;2023-04-06T03:05:44;10.85;;;6.28;;
66523;SDS011;53350;52.210;5.160;2023-04-06T03:10:38;11.98;;;6.57;;
66523;SDS011;53350;52.210;5.160;2023-04-06T03:13:05;13.77;;;6.85;;
66523;SDS011;53350;52.210;5.160;2023-04-06T03:15:31;12.85;;;6.75;;
66523;SDS011;53350;52.210;5.160;2023-04-06T03:17:57;12.80;;;6.90;;
66523;SDS011;53350;52.210;5.160;2023-04-06T03:20:24;14.43;;;7.30;;
66523;SDS011;53350;52.210;5.160;2023-04-06T03:22:52;16.10;;;7.75;;
66523;SDS011;53350;52.210;5.160;2023-04-06T03:25:18;13.05;;;7.10;;
66523;SDS011;53350;52.210;5.160;2023-04-06T03:27:45;14.05;;;7.72;;
66523;SDS011;53350;52.210;5.160;2023-04-06T03:30:11;12.20;;;7.43;;
66523;SDS011;53350;52.210;5.160;2023-04-06T03:32:38;16.13;;;7.22;;
66523;SDS011;53350;52.210;5.160;2023-04-06T03:35:04;14.00;;;7.45;;
66523;SDS011;53350;52.210;5.160;2023-04-06T03:37:31;14.95;;;8.05;;
66523;SDS011;53350;52.210;5.160;2023-04-06T03:39:59;14.02;;;8.30;;
66523;SDS011;53350;52.210;5.160;2023-04-06T03:42:25;15.02;;;8.20;;
66523;SDS011;53350;52.210;5.160;2023-04-06T03:44:52;16.30;;;8.18;;
66523;SDS011;53350;52.210;5.160;2023-04-06T03:47:18;14.27;;;7.63;;
66523;SDS011;53350;52.210;5.160;2023-04-06T03:49:45;19.10;;;7.80;;
66523;SDS011;53350;52.210;5.160;2023-04-06T03:52:11;18.55;;;8.35;;
66523;SDS011;53350;52.210;5.160;2023-04-06T03:54:38;14.88;;;8.30;;
66523;SDS011;53350;52.210;5.160;2023-04-06T03:57:06;19.88;;;8.20;;
66523;SDS011;53350;52.210;5.160;2023-04-06T03:59:32;14.82;;;8.68;;
66523;SDS011;53350;52.210;5.160;2023-04-06T04:01:59;16.80;;;8.65;;
66523;SDS011;53350;52.210;5.160;2023-04-06T04:04:25;18.02;;;8.52;;
66523;SDS011;53350;52.210;5.160;2023-04-06T04:06:52;19.45;;;8.57;;
66523;SDS011;53350;52.210;5.160;2023-04-06T04:09:18;14.95;;;9.32;;
66523;SDS011;53350;52.210;5.160;2023-04-06T04:11:45;17.98;;;8.77;;
66523;SDS011;53350;52.210;5.160;2023-04-06T04:14:12;17.13;;;8.68;;
66523;SDS011;53350;52.210;5.160;2023-04-06T04:16:39;15.43;;;9.00;;
66523;SDS011;53350;52.210;5.160;2023-04-06T04:19:06;20.98;;;9.25;;
66523;SDS011;53350;52.210;5.160;2023-04-06T04:21:33;17.92;;;9.77;;
66523;SDS011;53350;52.210;5.160;2023-04-06T04:24:00;15.70;;;8.95;;
66523;SDS011;53350;52.210;5.160;2023-04-06T04:26:26;18.60;;;9.75;;
66523;SDS011;53350;52.210;5.160;2023-04-06T04:28:52;18.58;;;9.48;;
66523;SDS011;53350;52.210;5.160;2023-04-06T04:31:20;18.80;;;10.13;;
66523;SDS011;53350;52.210;5.160;2023-04-06T04:33:47;18.98;;;9.52;;
66523;SDS011;53350;52.210;5.160;2023-04-06T04:36:14;22.45;;;10.32;;
66523;SDS011;53350;52.210;5.160;2023-04-06T04:38:40;17.08;;;9.02;;
66523;SDS011;53350;52.210;5.160;2023-04-06T04:41:07;22.40;;;9.50;;
66523;SDS011;53350;52.210;5.160;2023-04-06T04:43:33;16.95;;;9.00;;
66523;SDS011;53350;52.210;5.160;2023-04-06T04:45:59;19.15;;;10.07;;
66523;SDS011;53350;52.210;5.160;2023-04-06T04:48:27;20.65;;;10.23;;
66523;SDS011;53350;52.210;5.160;2023-04-06T04:50:53;16.43;;;9.93;;
66523;SDS011;53350;52.210;5.160;2023-04-06T04:53:20;18.38;;;9.02;;
66523;SDS011;53350;52.210;5.160;2023-04-06T04:55:47;19.10;;;9.55;;
66523;SDS011;53350;52.210;5.160;2023-04-06T04:58:13;15.88;;;9.32;;
66523;SDS011;53350;52.210;5.160;2023-04-06T05:00:41;17.52;;;9.30;;
66523;SDS011;53350;52.210;5.160;2023-04-06T05:03:08;18.33;;;10.43;;
66523;SDS011;53350;52.210;5.160;2023-04-06T05:05:36;15.65;;;8.68;;
66523;SDS011;53350;52.210;5.160;2023-04-06T05:08:03;16.90;;;9.27;;
66523;SDS011;53350;52.210;5.160;2023-04-06T05:10:30;18.05;;;9.93;;
66523;SDS011;53350;52.210;5.160;2023-04-06T05:12:56;20.20;;;11.18;;
66523;SDS011;53350;52.210;5.160;2023-04-06T05:15:23;18.30;;;10.13;;
66523;SDS011;53350;52.210;5.160;2023-04-06T05:17:50;17.80;;;9.57;;
66523;SDS011;53350;52.210;5.160;2023-04-06T05:20:16;17.15;;;9.85;;
66523;SDS011;53350;52.210;5.160;2023-04-06T05:22:44;17.55;;;9.30;;
66523;SDS011;53350;52.210;5.160;2023-04-06T05:25:10;22.80;;;10.30;;
66523;SDS011;53350;52.210;5.160;2023-04-06T05:27:37;19.75;;;9.55;;
66523;SDS011;53350;52.210;5.160;2023-04-06T05:30:04;19.80;;;10.43;;
66523;SDS011;53350;52.210;5.160;2023-04-06T05:32:32;19.35;;;10.50;;
66523;SDS011;53350;52.210;5.160;2023-04-06T05:34:58;21.08;;;10.35;;
66523;SDS011;53350;52.210;5.160;2023-04-06T05:37:25;19.50;;;11.30;;
66523;SDS011;53350;52.210;5.160;2023-04-06T05:39:52;24.05;;;10.95;;
66523;SDS011;53350;52.210;5.160;2023-04-06T05:42:19;21.95;;;11.10;;
66523;SDS011;53350;52.210;5.160;2023-04-06T05:44:46;19.55;;;11.02;;
66523;SDS011;53350;52.210;5.160;2023-04-06T05:47:12;19.95;;;10.80;;
66523;SDS011;53350;52.210;5.160;2023-04-06T05:49:39;19.40;;;10.80;;
66523;SDS011;53350;52.210;5.160;2023-04-06T05:52:07;20.05;;;10.80;;
66523;SDS011;53350;52.210;5.160;2023-04-06T05:54:34;21.45;;;10.77;;
66523;SDS011;53350;52.210;5.160;2023-04-06T05:57:02;18.90;;;10.88;;
66523;SDS011;53350;52.210;5.160;2023-04-06T05:59:29;21.75;;;12.10;;
66523;SDS011;53350;52.210;5.160;2023-04-06T06:01:56;19.55;;;11.23;;
66523;SDS011;53350;52.210;5.160;2023-04-06T06:04:22;20.88;;;11.55;;
66523;SDS011;53350;52.210;5.160;2023-04-06T06:06:49;19.30;;;11.23;;
66523;SDS011;53350;52.210;5.160;2023-04-06T06:09:15;20.10;;;10.88;;
66523;SDS011;53350;52.210;5.160;2023-04-06T06:11:41;20.73;;;10.30;;
66523;SDS011;53350;52.210;5.160;2023-04-06T06:14:09;18.45;;;10.55;;
66523;SDS011;53350;52.210;5.160;2023-04-06T06:16:36;21.60;;;11.73;;
66523;SDS011;53350;52.210;5.160;2023-04-06T06:19:02;22.92;;;11.23;;
66523;SDS011;53350;52.210;5.160;2023-04-06T06:21:29;23.02;;;10.88;;
66523;SDS011;53350;52.210;5.160;2023-04-06T06:23:55;21.33;;;11.00;;
66523;SDS011;53350;52.210;5.160;2023-04-06T06:26:22;24.67;;;11.20;;
66523;SDS011;53350;52.210;5.160;2023-04-06T06:28:48;23.33;;;12.07;;
66523;SDS011;53350;52.210;5.160;2023-04-06T06:31:16;20.65;;;11.45;;
66523;SDS011;53350;52.210;5.160;2023-04-06T06:33:45;23.05;;;11.48;;
66523;SDS011;53350;52.210;5.160;2023-04-06T06:36:15;24.45;;;12.05;;
66523;SDS011;53350;52.210;5.160;2023-04-06T06:38:41;22.27;;;11.45;;
66523;SDS011;53350;52.210;5.160;2023-04-06T06:41:08;25.00;;;13.15;;
66523;SDS011;53350;52.210;5.160;2023-04-06T06:43:34;26.23;;;12.15;;
66523;SDS011;53350;52.210;5.160;2023-04-06T06:46:00;20.98;;;11.98;;
66523;SDS011;53350;52.210;5.160;2023-04-06T06:48:28;26.55;;;13.73;;
66523;SDS011;53350;52.210;5.160;2023-04-06T06:50:55;21.95;;;13.20;;
66523;SDS011;53350;52.210;5.160;2023-04-06T06:53:22;25.15;;;12.65;;
66523;SDS011;53350;52.210;5.160;2023-04-06T06:55:49;24.25;;;13.73;;
66523;SDS011;53350;52.210;5.160;2023-04-06T06:58:17;20.27;;;12.48;;
66523;SDS011;53350;52.210;5.160;2023-04-06T07:00:44;26.02;;;13.63;;
66523;SDS011;53350;52.210;5.160;2023-04-06T07:03:11;22.65;;;13.25;;
66523;SDS011;53350;52.210;5.160;2023-04-06T07:05:38;22.55;;;13.60;;
66523;SDS011;53350;52.210;5.160;2023-04-06T07:08:14;20.65;;;12.70;;
66523;SDS011;53350;52.210;5.160;2023-04-06T07:10:40;21.25;;;13.27;;
66523;SDS011;53350;52.210;5.160;2023-04-06T07:13:07;22.23;;;13.75;;
66523;SDS011;53350;52.210;5.160;2023-04-06T07:15:33;21.98;;;12.93;;
66523;SDS011;53350;52.210;5.160;2023-04-06T07:17:59;27.20;;;13.32;;
66523;SDS011;53350;52.210;5.160;2023-04-06T07:20:26;22.80;;;12.98;;
66523;SDS011;53350;52.210;5.160;2023-04-06T07:22:54;33.17;;;13.50;;
66523;SDS011;53350;52.210;5.160;2023-04-06T07:25:20;22.53;;;13.70;;
66523;SDS011;53350;52.210;5.160;2023-04-06T07:27:47;28.08;;;13.73;;
66523;SDS011;53350;52.210;5.160;2023-04-06T07:30:13;20.23;;;13.30;;
66523;SDS011;53350;52.210;5.160;2023-04-06T07:32:40;24.67;;;13.80;;
66523;SDS011;53350;52.210;5.160;2023-04-06T07:35:07;29.27;;;13.52;;
66523;SDS011;53350;52.210;5.160;2023-04-06T07:37:33;23.08;;;12.55;;
66523;SDS011;53350;52.210;5.160;2023-04-06T07:40:01;23.52;;;14.02;;
66523;SDS011;53350;52.210;5.160;2023-04-06T07:42:27;21.83;;;13.85;;
66523;SDS011;53350;52.210;5.160;2023-04-06T07:44:54;25.73;;;14.27;;
66523;SDS011;53350;52.210;5.160;2023-04-06T07:47:20;24.67;;;13.38;;
66523;SDS011;53350;52.210;5.160;2023-04-06T07:49:47;23.88;;;14.18;;
66523;SDS011;53350;52.210;5.160;2023-04-06T07:52:13;27.30;;;15.15;;
66523;SDS011;53350;52.210;5.160;2023-04-06T07:54:40;22.60;;;14.07;;
66523;SDS011;53350;52.210;5.160;2023-04-06T07:57:08;24.90;;;15.70;;
66523;SDS011;53350;52.210;5.160;2023-04-06T07:59:34;28.17;;;15.00;;
66523;SDS011;53350;52.210;5.160;2023-04-06T08:02:01;24.77;;;14.50;;
66523;SDS011;53350;52.210;5.160;2023-04-06T08:04:27;20.98;;;13.60;;
66523;SDS011;53350;52.210;5.160;2023-04-06T08:06:54;25.83;;;14.75;;
66523;SDS011;53350;52.210;5.160;2023-04-06T08:09:20;26.38;;;14.90;;
66523;SDS011;53350;52.210;5.160;2023-04-06T08:11:46;28.88;;;15.80;;
66523;SDS011;53350;52.210;5.160;2023-04-06T08:14:15;28.65;;;15.63;;
66523;SDS011;53350;52.210;5.160;2023-04-06T08:16:41;25.38;;;16.00;;
66523;SDS011;53350;52.210;5.160;2023-04-06T08:19:07;27.90;;;17.05;;
66523;SDS011;53350;52.210;5.160;2023-04-06T08:21:34;32.03;;;16.25;;
66523;SDS011;53350;52.210;5.160;2023-04-06T08:24:01;31.10;;;17.65;;
66523;SDS011;53350;52.210;5.160;2023-04-06T08:26:28;29.05;;;16.27;;
66523;SDS011;53350;52.210;5.160;2023-04-06T08:28:54;25.15;;;15.57;;
66523;SDS011;53350;52.210;5.160;2023-04-06T08:31:22;25.02;;;14.88;;
66523;SDS011;53350;52.210;5.160;2023-04-06T08:33:48;28.30;;;15.90;;
66523;SDS011;53350;52.210;5.160;2023-04-06T08:36:15;29.42;;;15.73;;
66523;SDS011;53350;52.210;5.160;2023-04-06T08:38:45;27.25;;;16.13;;
66523;SDS011;53350;52.210;5.160;2023-04-06T08:41:12;30.15;;;16.17;;
66523;SDS011;53350;52.210;5.160;2023-04-06T08:43:41;29.43;;;15.70;;
66523;SDS011;53350;52.210;5.160;2023-04-06T08:46:10;24.98;;;15.68;;
66523;SDS011;53350;52.210;5.160;2023-04-06T08:48:38;22.88;;;14.70;;
66523;SDS011;53350;52.210;5.160;2023-04-06T08:51:06;24.42;;;15.35;;
66523;SDS011;53350;52.210;5.160;2023-04-06T08:53:32;26.67;;;15.02;;
66523;SDS011;53350;52.210;5.160;2023-04-06T08:55:59;24.45;;;16.02;;
66523;SDS011;53350;52.210;5.160;2023-04-06T08:58:26;25.15;;;14.95;;
66523;SDS011;53350;52.210;5.160;2023-04-06T09:00:56;31.60;;;15.60;;
66523;SDS011;53350;52.210;5.160;2023-04-06T09:03:24;24.60;;;16.03;;
66523;SDS011;53350;52.210;5.160;2023-04-06T09:05:55;31.02;;;16.27;;
66523;SDS011;53350;52.210;5.160;2023-04-06T09:08:22;26.35;;;15.13;;
66523;SDS011;53350;52.210;5.160;2023-04-06T09:10:48;26.08;;;16.23;;
66523;SDS011;53350;52.210;5.160;2023-04-06T09:13:16;26.83;;;16.55;;
66523;SDS011;53350;52.210;5.160;2023-04-06T09:15:43;27.35;;;15.98;;
66523;SDS011;53350;52.210;5.160;2023-04-06T09:18:09;29.15;;;16.15;;
66523;SDS011;53350;52.210;5.160;2023-04-06T09:20:36;25.13;;;15.65;;
66523;SDS011;53350;52.210;5.160;2023-04-06T09:23:04;28.92;;;16.77;;
66523;SDS011;53350;52.210;5.160;2023-04-06T09:25:30;30.75;;;16.35;;
66523;SDS011;53350;52.210;5.160;2023-04-06T09:28:01;30.83;;;16.42;;
66523;SDS011;53350;52.210;5.160;2023-04-06T09:30:29;27.80;;;17.27;;
66523;SDS011;53350;52.210;5.160;2023-04-06T09:32:56;28.20;;;16.05;;
66523;SDS011;53350;52.210;5.160;2023-04-06T09:35:24;31.65;;;17.63;;
66523;SDS011;53350;52.210;5.160;2023-04-06T09:37:52;24.40;;;16.73;;
66523;SDS011;53350;52.210;5.160;2023-04-06T09:40:20;28.60;;;16.65;;
66523;SDS011;53350;52.210;5.160;2023-04-06T09:42:47;28.67;;;18.08;;
66523;SDS011;53350;52.210;5.160;2023-04-06T09:45:15;31.95;;;19.67;;
66523;SDS011;53350;52.210;5.160;2023-04-06T09:47:42;29.75;;;19.45;;
66523;SDS011;53350;52.210;5.160;2023-04-06T09:50:10;27.15;;;19.00;;
66523;SDS011;53350;52.210;5.160;2023-04-06T09:52:38;28.90;;;18.27;;
66523;SDS011;53350;52.210;5.160;2023-04-06T09:55:07;28.98;;;18.83;;
66523;SDS011;53350;52.210;5.160;2023-04-06T09:57:37;32.30;;;19.10;;
66523;SDS011;53350;52.210;5.160;2023-04-06T10:00:11;37.33;;;19.23;;
66523;SDS011;53350;52.210;5.160;2023-04-06T10:02:45;26.20;;;17.13;;
66523;SDS011;53350;52.210;5.160;2023-04-06T10:05:18;27.77;;;19.52;;
66523;SDS011;53350;52.210;5.160;2023-04-06T10:07:48;34.03;;;18.25;;
66523;SDS011;53350;52.210;5.160;2023-04-06T10:10:20;29.92;;;15.98;;
66523;SDS011;53350;52.210;5.160;2023-04-06T10:12:49;30.48;;;17.83;;
66523;SDS011;53350;52.210;5.160;2023-04-06T10:15:15;29.40;;;16.92;;
66523;SDS011;53350;52.210;5.160;2023-04-06T10:17:42;28.77;;;17.30;;
66523;SDS011;53350;52.210;5.160;2023-04-06T10:20:10;27.70;;;16.88;;
66523;SDS011;53350;52.210;5.160;2023-04-06T10:22:43;29.52;;;18.08;;
66523;SDS011;53350;52.210;5.160;2023-04-06T10:25:21;30.10;;;16.75;;
66523;SDS011;53350;52.210;5.160;2023-04-06T10:27:59;25.40;;;15.65;;
66523;SDS011;53350;52.210;5.160;2023-04-06T10:30:26;25.55;;;15.40;;
66523;SDS011;53350;52.210;5.160;2023-04-06T10:32:54;19.80;;;12.38;;
66523;SDS011;53350;52.210;5.160;2023-04-06T10:35:20;22.83;;;13.48;;
66523;SDS011;53350;52.210;5.160;2023-04-06T10:37:49;20.60;;;12.88;;
66523;SDS011;53350;52.210;5.160;2023-04-06T10:40:21;20.55;;;12.32;;
66523;SDS011;53350;52.210;5.160;2023-04-06T10:42:49;21.10;;;12.05;;
66523;SDS011;53350;52.210;5.160;2023-04-06T10:45:21;18.65;;;11.70;;
66523;SDS011;53350;52.210;5.160;2023-04-06T10:47:49;22.15;;;10.73;;
66523;SDS011;53350;52.210;5.160;2023-04-06T10:50:18;15.40;;;8.77;;
66523;SDS011;53350;52.210;5.160;2023-04-06T10:52:45;13.38;;;7.40;;
66523;SDS011;53350;52.210;5.160;2023-04-06T10:55:12;13.30;;;7.70;;
66523;SDS011;53350;52.210;5.160;2023-04-06T10:57:40;13.40;;;6.88;;
66523;SDS011;53350;52.210;5.160;2023-04-06T11:00:07;10.90;;;6.18;;
66523;SDS011;53350;52.210;5.160;2023-04-06T11:02:36;11.13;;;6.97;;
66523;SDS011;53350;52.210;5.160;2023-04-06T11:05:03;11.40;;;6.25;;
66523;SDS011;53350;52.210;5.160;2023-04-06T11:07:30;11.70;;;6.88;;
66523;SDS011;53350;52.210;5.160;2023-04-06T11:09:56;11.00;;;6.00;;
66523;SDS011;53350;52.210;5.160;2023-04-06T11:12:23;12.48;;;6.43;;
66523;SDS011;53350;52.210;5.160;2023-04-06T11:14:54;12.02;;;6.30;;
66523;SDS011;53350;52.210;5.160;2023-04-06T11:17:26;10.30;;;6.35;;
66523;SDS011;53350;52.210;5.160;2023-04-06T11:19:54;12.57;;;6.45;;
66523;SDS011;53350;52.210;5.160;2023-04-06T11:22:20;14.70;;;7.50;;
66523;SDS011;53350;52.210;5.160;2023-04-06T11:24:47;12.60;;;6.13;;
66523;SDS011;53350;52.210;5.160;2023-04-06T11:27:14;10.65;;;5.45;;
66523;SDS011;53350;52.210;5.160;2023-04-06T11:29:41;9.70;;;5.22;;
66523;SDS011;53350;52.210;5.160;2023-04-06T11:32:10;12.85;;;6.55;;
66523;SDS011;53350;52.210;5.160;2023-04-06T11:34:38;10.15;;;6.03;;
66523;SDS011;53350;52.210;5.160;2023-04-06T11:37:08;10.93;;;6.50;;
66523;SDS011;53350;52.210;5.160;2023-04-06T11:39:37;10.65;;;5.80;;
66523;SDS011;53350;52.210;5.160;2023-04-06T11:42:04;11.63;;;6.45;;
66523;SDS011;53350;52.210;5.160;2023-04-06T11:44:31;12.40;;;7.13;;
66523;SDS011;53350;52.210;5.160;2023-04-06T11:47:00;9.68;;;6.07;;
66523;SDS011;53350;52.210;5.160;2023-04-06T11:49:27;9.68;;;5.60;;
66523;SDS011;53350;52.210;5.160;2023-04-06T11:51:54;11.85;;;6.30;;
66523;SDS011;53350;52.210;5.160;2023-04-06T11:54:30;10.85;;;5.60;;
66523;SDS011;53350;52.210;5.160;2023-04-06T11:56:57;11.13;;;6.60;;
66523;SDS011;53350;52.210;5.160;2023-04-06T11:59:24;11.02;;;6.47;;
66523;SDS011;53350;52.210;5.160;2023-04-06T12:01:50;9.52;;;5.90;;
66523;SDS011;53350;52.210;5.160;2023-04-06T12:04:18;9.83;;;5.67;;
66523;SDS011;53350;52.210;5.160;2023-04-06T12:06:44;11.40;;;5.80;;
66523;SDS011;53350;52.210;5.160;2023-04-06T12:09:11;9.02;;;5.15;;
66523;SDS011;53350;52.210;5.160;2023-04-06T12:11:39;7.95;;;4.88;;
66523;SDS011;53350;52.210;5.160;2023-04-06T12:14:05;9.70;;;5.78;;
66523;SDS011;53350;52.210;5.160;2023-04-06T12:16:32;9.95;;;5.15;;
66523;SDS011;53350;52.210;5.160;2023-04-06T12:18:59;10.60;;;5.25;;
66523;SDS011;53350;52.210;5.160;2023-04-06T12:21:26;12.07;;;6.03;;
66523;SDS011;53350;52.210;5.160;2023-04-06T12:23:53;12.38;;;6.50;;
66523;SDS011;53350;52.210;5.160;2023-04-06T12:26:19;12.30;;;6.15;;
66523;SDS011;53350;52.210;5.160;2023-04-06T12:28:47;11.30;;;6.47;;
66523;SDS011;53350;52.210;5.160;2023-04-06T12:31:14;11.52;;;7.07;;
66523;SDS011;53350;52.210;5.160;2023-04-06T12:33:41;11.93;;;7.40;;
66523;SDS011;53350;52.210;5.160;2023-04-06T12:36:11;14.30;;;7.90;;
66523;SDS011;53350;52.210;5.160;2023-04-06T12:38:38;16.50;;;8.57;;
66523;SDS011;53350;52.210;5.160;2023-04-06T12:41:04;13.45;;;9.07;;
66523;SDS011;53350;52.210;5.160;2023-04-06T12:43:31;15.75;;;8.45;;
66523;SDS011;53350;52.210;5.160;2023-04-06T12:45:59;14.98;;;9.00;;
66523;SDS011;53350;52.210;5.160;2023-04-06T12:48:25;12.88;;;6.75;;
66523;SDS011;53350;52.210;5.160;2023-04-06T12:50:55;11.45;;;7.30;;
66523;SDS011;53350;52.210;5.160;2023-04-06T12:53:23;15.05;;;8.75;;
66523;SDS011;53350;52.210;5.160;2023-04-06T12:55:49;13.65;;;8.38;;
66523;SDS011;53350;52.210;5.160;2023-04-06T12:58:16;14.68;;;8.45;;
66523;SDS011;53350;52.210;5.160;2023-04-06T13:00:43;16.27;;;8.60;;
66523;SDS011;53350;52.210;5.160;2023-04-06T13:03:10;17.75;;;9.25;;
66523;SDS011;53350;52.210;5.160;2023-04-06T13:05:43;14.23;;;8.13;;
66523;SDS011;53350;52.210;5.160;2023-04-06T13:08:10;14.75;;;9.07;;
66523;SDS011;53350;52.210;5.160;2023-04-06T13:10:37;17.95;;;9.60;;
66523;SDS011;53350;52.210;5.160;2023-04-06T13:13:04;16.63;;;9.85;;
66523;SDS011;53350;52.210;5.160;2023-04-06T13:15:31;14.65;;;9.02;;
66523;SDS011;53350;52.210;5.160;2023-04-06T13:17:59;17.42;;;9.25;;
66523;SDS011;53350;52.210;5.160;2023-04-06T13:20:27;14.77;;;8.23;;
66523;SDS011;53350;52.210;5.160;2023-04-06T13:22:54;15.02;;;9.02;;
66523;SDS011;53350;52.210;5.160;2023-04-06T13:25:20;17.67;;;8.90;;
66523;SDS011;53350;52.210;5.160;2023-04-06T13:27:47;14.98;;;9.90;;
66523;SDS011;53350;52.210;5.160;2023-04-06T13:30:13;14.73;;;9.07;;
66523;SDS011;53350;52.210;5.160;2023-04-06T13:32:40;16.45;;;10.05;;
66523;SDS011;53350;52.210;5.160;2023-04-06T13:35:07;16.15;;;9.85;;
66523;SDS011;53350;52.210;5.160;2023-04-06T13:37:35;16.23;;;10.07;;
66523;SDS011;53350;52.210;5.160;2023-04-06T13:40:02;16.13;;;8.93;;
66523;SDS011;53350;52.210;5.160;2023-04-06T13:42:29;14.95;;;9.18;;
66523;SDS011;53350;52.210;5.160;2023-04-06T13:44:57;18.30;;;10.02;;
66523;SDS011;53350;52.210;5.160;2023-04-06T13:47:23;17.02;;;9.68;;
66523;SDS011;53350;52.210;5.160;2023-04-06T13:49:50;14.30;;;9.02;;
66523;SDS011;53350;52.210;5.160;2023-04-06T13:52:17;17.70;;;10.25;;
66523;SDS011;53350;52.210;5.160;2023-04-06T13:54:46;13.18;;;9.48;;
66523;SDS011;53350;52.210;5.160;2023-04-06T13:57:12;14.20;;;9.10;;
66523;SDS011;53350;52.210;5.160;2023-04-06T13:59:38;16.45;;;8.65;;
66523;SDS011;53350;52.210;5.160;2023-04-06T14:02:06;15.95;;;10.80;;
66523;SDS011;53350;52.210;5.160;2023-04-06T14:04:34;14.40;;;9.57;;
66523;SDS011;53350;52.210;5.160;2023-04-06T14:07:01;17.73;;;9.13;;
66523;SDS011;53350;52.210;5.160;2023-04-06T14:09:28;14.93;;;9.93;;
66523;SDS011;53350;52.210;5.160;2023-04-06T14:11:56;17.95;;;9.55;;
66523;SDS011;53350;52.210;5.160;2023-04-06T14:14:23;15.30;;;10.52;;
66523;SDS011;53350;52.210;5.160;2023-04-06T14:16:49;16.73;;;9.30;;
66523;SDS011;53350;52.210;5.160;2023-04-06T14:19:16;15.43;;;9.95;;
66523;SDS011;53350;52.210;5.160;2023-04-06T14:21:43;17.33;;;9.30;;
66523;SDS011;53350;52.210;5.160;2023-04-06T14:24:10;15.32;;;9.20;;
66523;SDS011;53350;52.210;5.160;2023-04-06T14:26:38;16.92;;;9.70;;
66523;SDS011;53350;52.210;5.160;2023-04-06T14:29:07;14.80;;;9.43;;
66523;SDS011;53350;52.210;5.160;2023-04-06T14:31:34;13.73;;;9.45;;